Time;durP1;ratioP1;P1;durP2;ratioP2;P2;SDS_P1;SDS_P2;PMS_P1;PMS_P2;Temp;Humidity;BMP_temperature;BMP_pressure;BME280_temperature;BME280_humidity;BME280_pressure;Samples;Min_cycle;Max_cycle;Signal;HPM_P1;HPM_P2
2022/01/19 00:02:20;;;;;;;40.63;22.13;;;;;;;;;;5091301;28;20101;-77
2022/01/19 00:04:46;;;;;;;35.63;20.98;;;;;;;;;;5092653;28;20476;-77
2022/01/19 00:07:12;;;;;;;33.25;17.02;;;;;;;;;;5092417;28;20040;-77
2022/01/19 00:09:38;;;;;;;29.80;17.30;;;;;;;;;;5092694;28;20036;-77
2022/01/19 00:12:04;;;;;;;29.83;15.35;;;;;;;;;;5091691;28;20050;-77
2022/01/19 00:14:31;;;;;;;28.40;15.63;;;;;;;;;;5092604;28;20048;-77
2022/01/19 00:16:57;;;;;;;35.88;17.85;;;;;;;;;;5092754;28;20101;-77
2022/01/19 00:19:23;;;;;;;39.80;19.20;;;;;;;;;;5091338;28;20052;-77
2022/01/19 00:21:49;;;;;;;39.17;19.90;;;;;;;;;;5091414;28;20043;-77
2022/01/19 00:24:15;;;;;;;29.10;18.63;;;;;;;;;;5091166;28;20105;-77
2022/01/19 00:26:42;;;;;;;31.65;18.92;;;;;;;;;;5091834;28;20063;-77
2022/01/19 00:29:08;;;;;;;34.90;15.63;;;;;;;;;;5092146;28;20044;-78
2022/01/19 00:31:34;;;;;;;32.88;14.90;;;5.50;99.90;;;;;;5092511;28;20074;-77
2022/01/19 00:33:59;;;;;;;29.40;13.93;;;5.50;99.90;;;;;;5091572;28;20058;-77
2022/01/19 00:36:26;;;;;;;34.30;15.80;;;5.50;99.90;;;;;;5090910;28;20472;-77
2022/01/19 00:38:52;;;;;;;36.47;16.40;;;5.50;99.90;;;;;;5092393;28;20051;-78
2022/01/19 00:41:18;;;;;;;41.93;19.10;;;5.50;99.90;;;;;;5095121;28;20468;-78
2022/01/19 00:43:44;;;;;;;37.20;19.30;;;5.50;99.90;;;;;;5095076;28;20189;-77
2022/01/19 00:46:09;;;;;;;39.23;18.83;;;5.70;99.90;;;;;;5095889;28;20063;-79
2022/01/19 00:48:36;;;;;;;39.20;19.33;;;5.40;99.90;;;;;;5095853;28;20040;-78
2022/01/19 00:51:02;;;;;;;37.90;19.65;;;5.80;99.90;;;;;;5095855;28;20476;-78
2022/01/19 00:53:28;;;;;;;51.03;21.13;;;5.50;99.90;;;;;;5094389;28;20085;-78
2022/01/19 00:55:56;;;;;;;43.13;22.50;;;5.60;99.90;;;;;;5095788;28;20147;-78
2022/01/19 00:58:22;;;;;;;43.55;25.92;;;5.50;99.90;;;;;;5095452;28;20408;-78
2022/01/19 01:00:48;;;;;;;48.23;27.17;;;5.50;99.90;;;;;;5077882;28;20050;-77
2022/01/19 01:03:13;;;;;;;50.67;28.63;;;5.50;99.90;;;;;;5095401;28;20138;-78
2022/01/19 01:05:39;;;;;;;49.93;28.83;;;5.70;99.90;;;;;;5095883;28;20048;-77
2022/01/19 01:08:05;;;;;;;48.67;26.97;;;5.80;99.90;;;;;;5095653;28;20052;-77
2022/01/19 01:10:40;;;;;;;48.27;26.90;;;5.60;99.90;;;;;;5093969;28;20410;-77
2022/01/19 01:13:20;;;;;;;48.28;24.88;;;5.80;99.90;;;;;;5095699;28;20131;-77
2022/01/19 01:18:29;;;;;;;51.78;30.17;;;5.70;99.90;;;;;;5094237;28;20052;-77
2022/01/19 01:20:57;;;;;;;51.67;28.55;;;5.60;99.90;;;;;;5095320;28;20040;-77
2022/01/19 01:23:25;;;;;;;51.83;27.83;;;5.60;99.90;;;;;;5094012;28;20460;-77
2022/01/19 01:25:52;;;;;;;60.35;29.30;;;5.70;99.90;;;;;;5095278;28;20119;-77
2022/01/19 01:28:18;;;;;;;47.75;27.55;;;5.60;99.90;;;;;;5093781;28;20443;-78
2022/01/19 01:30:45;;;;;;;47.33;26.98;;;5.50;99.90;;;;;;5095316;28;20043;-77
2022/01/19 01:33:11;;;;;;;50.53;27.90;;;5.50;99.90;;;;;;5095068;28;20109;-77
2022/01/19 01:35:37;;;;;;;53.85;25.08;;;5.40;99.90;;;;;;5094793;28;20088;-77
2022/01/19 01:38:05;;;;;;;51.83;20.92;;;5.40;99.90;;;;;;5094682;28;20052;-77
2022/01/19 01:40:33;;;;;;;45.22;24.08;;;5.30;99.90;;;;;;5094867;28;20044;-77
2022/01/19 01:43:02;;;;;;;48.60;26.92;;;5.30;99.90;;;;;;5094557;28;20504;-77
2022/01/19 01:45:31;;;;;;;45.85;24.25;;;5.30;99.90;;;;;;5093349;28;20047;-77
2022/01/19 01:53:28;;;;;;;49.00;25.65;;;5.60;99.90;;;;;;5094614;28;19928;-77
2022/01/19 01:55:56;;;;;;;51.22;27.70;;;5.20;99.90;;;;;;5094644;28;20044;-77
2022/01/19 01:58:22;;;;;;;52.42;27.85;;;5.30;99.90;;;;;;5092965;28;20086;-77
2022/01/19 02:00:48;;;;;;;52.10;28.85;;;5.60;99.90;;;;;;5094656;28;20062;-77
2022/01/19 02:03:14;;;;;;;50.53;27.90;;;5.30;99.90;;;;;;5094554;28;20472;-76
2022/01/19 02:05:54;;;;;;;52.58;27.00;;;5.20;99.90;;;;;;5094116;28;20091;-77
2022/01/19 02:08:22;;;;;;;52.88;28.20;;;5.30;99.90;;;;;;5094192;28;20094;-77
2022/01/19 02:11:17;;;;;;;49.45;27.58;;;5.30;99.90;;;;;;5094645;28;20048;-77
2022/01/19 02:21:37;;;;;;;48.67;24.65;;;5.30;99.90;;;;;;5081387;28;20048;-77
2022/01/19 02:22:10;;;;;;;57.00;26.77;;;5.30;99.90;;;;;;5094210;28;20052;-77
2022/01/19 02:24:45;;;;;;;54.90;29.30;;;5.30;99.90;;;;;;5093820;28;20127;-77
2022/01/19 02:30:44;;;;;;;65.45;30.40;;;5.40;99.90;;;;;;5094183;28;20052;-77
2022/01/19 02:41:28;;;;;;;72.60;36.90;;;5.30;99.90;;;;;;5091225;28;20101;-77
2022/01/19 02:43:56;;;;;;;71.33;37.67;;;5.30;99.90;;;;;;5093637;28;20047;-77
2022/01/19 02:46:41;;;;;;;66.35;35.97;;;5.30;99.90;;;;;;5092739;28;20052;-77
2022/01/19 02:49:16;;;;;;;64.57;33.80;;;5.40;99.90;;;;;;5093546;28;20047;-76
2022/01/19 02:51:43;;;;;;;66.88;33.70;;;5.40;99.90;;;;;;5092418;28;20059;-76
2022/01/19 02:54:17;;;;;;;72.95;35.78;;;5.40;99.90;;;;;;5093513;28;20049;-77
2022/01/19 02:56:47;;;;;;;69.88;35.03;;;5.30;99.90;;;;;;5093332;28;20114;-77
2022/01/19 02:59:23;;;;;;;75.00;37.42;;;5.30;99.90;;;;;;5093466;28;20036;-77
2022/01/19 03:09:46;;;;;;;76.28;36.03;;;5.60;99.90;;;;;;5092986;28;20052;-77
2022/01/19 03:12:12;;;;;;;70.80;33.20;;;5.40;99.90;;;;;;5058860;28;20560;-77
2022/01/19 03:14:39;;;;;;;65.20;31.83;;;5.30;99.90;;;;;;5091991;28;20101;-77
2022/01/19 03:17:06;;;;;;;71.10;32.22;;;5.30;99.90;;;;;;5092228;28;20127;-77
2022/01/19 03:19:33;;;;;;;78.13;34.35;;;5.30;99.90;;;;;;5075100;28;20048;-77
2022/01/19 03:21:59;;;;;;;70.50;32.97;;;5.30;99.90;;;;;;5092310;28;20113;-77
2022/01/19 03:24:25;;;;;;;76.35;34.50;;;5.30;99.90;;;;;;5093179;28;20058;-77
2022/01/19 03:26:51;;;;;;;79.60;32.27;;;5.30;99.90;;;;;;5092886;28;20048;-77
2022/01/19 03:29:17;;;;;;;80.43;33.27;;;5.20;99.90;;;;;;5092996;28;20225;-77
2022/01/19 03:31:43;;;;;;;76.05;30.00;;;5.30;99.90;;;;;;5092699;28;20052;-77
2022/01/19 03:34:10;;;;;;;68.50;28.73;;;5.20;99.90;;;;;;5093027;28;20120;-77
2022/01/19 03:36:36;;;;;;;65.07;28.42;;;5.20;99.90;;;;;;5091193;28;20500;-77
2022/01/19 03:39:03;;;;;;;71.57;28.73;;;5.20;99.90;;;;;;5091707;28;20054;-77
2022/01/19 03:41:29;;;;;;;72.45;29.88;;;5.10;99.90;;;;;;5092662;28;20142;-78
2022/01/19 03:43:55;;;;;;;72.70;31.63;;;5.10;99.90;;;;;;5092910;28;20044;-77
2022/01/19 03:46:22;;;;;;;76.77;29.10;;;5.10;99.90;;;;;;5091953;28;20113;-77
2022/01/19 03:51:17;;;;;;;69.20;28.73;;;5.10;99.90;;;;;;5092805;28;20410;-77
2022/01/19 03:53:42;;;;;;;70.45;28.88;;;5.10;99.90;;;;;;5092529;28;20040;-77
2022/01/19 03:56:08;;;;;;;74.03;30.03;;;5.10;99.90;;;;;;5093088;28;20142;-77
2022/01/19 03:58:36;;;;;;;74.13;29.80;;;5.10;99.90;;;;;;5091357;28;20399;-77
2022/01/19 04:01:03;;;;;;;72.25;28.77;;;5.10;99.90;;;;;;5093080;28;20059;-77
2022/01/19 04:06:21;;;;;;;58.20;26.27;;;5.00;99.90;;;;;;5092749;28;20048;-77
2022/01/19 04:08:46;;;;;;;56.33;25.90;;;5.00;99.90;;;;;;5091275;28;20055;-77
2022/01/19 04:11:15;;;;;;;57.90;25.60;;;5.00;99.90;;;;;;5074930;28;20048;-77
2022/01/19 04:16:22;;;;;;;57.13;27.00;;;4.90;99.90;;;;;;5096810;28;20048;-77
2022/01/19 04:18:49;;;;;;;63.40;27.00;;;4.90;99.90;;;;;;5095280;28;20058;-77
2022/01/19 04:21:15;;;;;;;59.88;26.15;;;4.90;99.90;;;;;;5096523;28;20433;-77
2022/01/19 04:23:41;;;;;;;61.13;26.50;;;4.90;99.90;;;;;;5096066;28;20046;-77
2022/01/19 04:26:06;;;;;;;54.60;24.47;;;4.90;99.90;;;;;;5096447;28;20102;-77
2022/01/19 04:28:33;;;;;;;51.40;25.83;;;4.90;99.90;;;;;;5078401;28;20040;-77
2022/01/19 04:30:59;;;;;;;50.20;25.35;;;4.90;99.90;;;;;;5096186;28;20048;-77
2022/01/19 04:33:27;;;;;;;48.67;23.70;;;4.90;99.90;;;;;;5095231;28;20050;-77
2022/01/19 04:36:05;;;;;;;49.22;24.52;;;4.90;99.90;;;;;;5094477;28;20044;-76
2022/01/19 04:44:25;;;;;;;52.55;24.90;;;4.90;99.90;;;;;;5095828;28;20052;-77
2022/01/19 05:06:10;;;;;;;46.10;25.42;;;4.80;99.90;;;;;;5090353;28;20044;-77
2022/01/19 05:14:14;;;;;;;48.13;23.55;;;4.80;99.90;;;;;;5083895;28;20052;-77
2022/01/19 05:16:39;;;;;;;46.80;24.87;;;4.80;99.90;;;;;;5094320;28;20044;-78
2022/01/19 05:19:05;;;;;;;40.87;22.77;;;4.80;99.90;;;;;;5095483;28;20123;-77
2022/01/19 05:21:31;;;;;;;43.33;23.20;;;4.80;99.90;;;;;;5095523;28;20048;-77
2022/01/19 05:23:57;;;;;;;40.87;22.23;;;4.80;99.90;;;;;;5094973;28;20048;-77
2022/01/19 05:26:22;;;;;;;42.83;21.70;;;4.80;99.90;;;;;;5093753;28;20052;-77
2022/01/19 05:28:49;;;;;;;41.17;21.77;;;4.80;99.90;;;;;;5094897;28;20044;-77
2022/01/19 05:31:14;;;;;;;44.60;23.60;;;4.80;99.90;;;;;;5094100;28;20507;-77
2022/01/19 05:33:40;;;;;;;50.57;24.40;;;4.80;99.90;;;;;;5095089;28;20052;-77
2022/01/19 05:36:06;;;;;;;36.30;21.57;;;4.80;99.90;;;;;;5094325;28;20067;-77
2022/01/19 05:38:31;;;;;;;43.03;23.23;;;4.70;99.90;;;;;;5093875;28;20075;-77
2022/01/19 05:40:57;;;;;;;42.43;23.07;;;4.80;99.90;;;;;;5094750;28;20117;-77
2022/01/19 05:43:23;;;;;;;42.73;23.00;;;4.80;99.90;;;;;;5094716;28;20495;-77
2022/01/19 05:45:49;;;;;;;42.90;22.27;;;4.80;99.90;;;;;;5094584;28;20059;-77
2022/01/19 05:48:14;;;;;;;41.57;20.93;;;4.80;99.90;;;;;;5094880;28;20075;-77
2022/01/19 05:50:40;;;;;;;38.03;22.30;;;4.80;99.90;;;;;;5094865;28;20537;-77
2022/01/19 05:53:06;;;;;;;44.33;23.83;;;4.80;99.90;;;;;;5094510;28;20050;-77
2022/01/19 05:55:31;;;;;;;39.20;23.03;;;4.80;99.90;;;;;;5094744;28;20055;-77
2022/01/19 05:57:57;;;;;;;35.57;21.37;;;4.80;99.90;;;;;;5094353;28;20519;-77
2022/01/19 06:00:23;;;;;;;43.37;23.23;;;4.80;99.90;;;;;;5094267;28;20044;-77
2022/01/19 06:02:49;;;;;;;42.07;22.80;;;4.80;99.90;;;;;;5094567;28;20051;-78
2022/01/19 06:05:15;;;;;;;41.20;23.45;;;4.80;99.90;;;;;;5093470;28;20047;-77
2022/01/19 06:07:46;;;;;;;40.47;23.00;;;4.80;99.90;;;;;;5093461;28;20075;-77
2022/01/19 06:10:42;;;;;;;41.35;23.73;;;4.80;99.90;;;;;;5094403;28;20047;-77
2022/01/19 06:13:00;;;;;;;43.85;25.27;;;4.90;99.90;;;;;;5093821;28;20496;-77
2022/01/19 06:15:26;;;;;;;39.38;24.02;;;4.90;99.90;;;;;;5094358;28;20100;-77
2022/01/19 06:17:52;;;;;;;44.13;24.20;;;4.90;99.90;;;;;;5092878;28;20043;-77
2022/01/19 06:20:17;;;;;;;43.97;25.13;;;4.90;99.90;;;;;;5094219;28;20040;-77
2022/01/19 06:22:43;;;;;;;45.03;25.10;;;4.90;99.90;;;;;;5093330;28;20077;-77
2022/01/19 06:25:09;;;;;;;39.10;23.63;;;4.90;99.90;;;;;;5093810;28;20435;-77
2022/01/19 06:27:35;;;;;;;39.90;23.20;;;4.80;99.90;;;;;;5093774;28;20043;-77
2022/01/19 06:30:00;;;;;;;38.47;24.40;;;4.90;99.90;;;;;;5075589;28;20039;-77
2022/01/19 06:32:26;;;;;;;50.30;26.33;;;4.90;99.90;;;;;;5094141;28;20528;-77
2022/01/19 06:34:52;;;;;;;43.63;23.87;;;4.80;99.90;;;;;;5092812;28;20050;-78
2022/01/19 06:37:17;;;;;;;42.63;24.00;;;4.80;99.90;;;;;;5091259;28;20126;-77
2022/01/19 06:39:43;;;;;;;42.77;24.87;;;4.90;99.90;;;;;;5092744;28;20143;-77
2022/01/19 06:42:09;;;;;;;44.27;25.27;;;4.90;99.90;;;;;;5093532;28;20067;-78
2022/01/19 06:44:35;;;;;;;45.07;25.20;;;4.80;99.90;;;;;;5092775;28;20086;-77
2022/01/19 06:47:00;;;;;;;47.10;26.57;;;4.80;99.90;;;;;;5093327;28;20472;-77
2022/01/19 06:49:26;;;;;;;43.03;25.03;;;4.80;99.90;;;;;;5093736;28;20541;-77
2022/01/19 06:51:52;;;;;;;43.70;25.17;;;4.90;99.90;;;;;;5092558;28;20299;-78
2022/01/19 06:54:18;;;;;;;47.70;26.67;;;4.90;99.90;;;;;;5092762;28;20445;-77
2022/01/19 06:56:44;;;;;;;45.77;25.63;;;4.90;99.90;;;;;;5092133;28;20043;-76
2022/01/19 06:59:10;;;;;;;43.47;26.97;;;4.80;99.90;;;;;;5093325;28;20055;-77
2022/01/19 07:01:36;;;;;;;42.95;25.60;;;4.90;99.90;;;;;;5093857;28;20285;-76
2022/01/19 07:04:03;;;;;;;48.03;27.87;;;4.80;99.90;;;;;;5093789;28;20055;-78
2022/01/19 07:06:29;;;;;;;51.78;28.73;;;4.90;99.90;;;;;;5095696;28;20047;-78
2022/01/19 07:08:55;;;;;;;47.67;28.23;;;4.90;99.90;;;;;;5092255;28;20044;-77
2022/01/19 07:11:21;;;;;;;44.37;26.53;;;4.90;99.90;;;;;;5093760;28;20487;-77
2022/01/19 07:13:46;;;;;;;45.53;26.87;;;4.80;99.90;;;;;;5093569;28;20043;-78
2022/01/19 07:16:12;;;;;;;47.23;27.23;;;4.90;99.90;;;;;;5091500;28;20040;-77
2022/01/19 07:18:38;;;;;;;50.70;27.97;;;4.90;99.90;;;;;;5075467;28;20040;-78
2022/01/19 07:21:04;;;;;;;49.40;28.93;;;4.90;99.90;;;;;;5091909;28;20051;-77
2022/01/19 07:23:29;;;;;;;43.77;26.97;;;4.90;99.90;;;;;;5092110;28;20097;-77
2022/01/19 07:25:55;;;;;;;43.83;27.50;;;4.90;99.90;;;;;;5092976;28;20050;-77
2022/01/19 07:28:21;;;;;;;49.27;27.27;;;5.00;99.90;;;;;;5092244;28;20109;-77
2022/01/19 07:30:46;;;;;;;49.80;28.07;;;4.90;99.90;;;;;;5092744;28;20480;-77
2022/01/19 07:33:12;;;;;;;43.20;27.50;;;4.90;99.90;;;;;;5091831;28;20127;-77
2022/01/19 07:35:38;;;;;;;46.58;28.02;;;4.90;99.90;;;;;;5091885;28;20505;-76
2022/01/19 07:38:04;;;;;;;44.93;29.10;;;4.90;99.90;;;;;;5092903;28;20063;-77
2022/01/19 07:40:30;;;;;;;51.10;29.30;;;4.90;99.90;;;;;;5092061;28;20408;-77
2022/01/19 07:42:55;;;;;;;48.97;28.97;;;4.90;99.90;;;;;;5092011;28;20135;-78
2022/01/19 07:45:21;;;;;;;45.70;27.63;;;5.00;99.90;;;;;;5092886;28;20426;-77
2022/01/19 07:47:47;;;;;;;47.47;29.77;;;4.90;99.90;;;;;;5091948;28;20488;-77
2022/01/19 07:50:13;;;;;;;45.63;28.50;;;4.90;99.90;;;;;;5094690;28;20040;-77
2022/01/19 07:52:39;;;;;;;49.67;29.40;;;5.00;99.90;;;;;;5097100;28;20044;-77
2022/01/19 07:55:05;;;;;;;52.23;30.77;;;5.00;99.90;;;;;;5095756;28;20499;-78
2022/01/19 07:57:31;;;;;;;49.80;30.55;;;5.00;99.90;;;;;;5097117;28;20047;-77
2022/01/19 07:59:56;;;;;;;45.83;29.47;;;5.00;99.90;;;;;;5096992;28;20058;-75
2022/01/19 08:02:22;;;;;;;51.90;30.50;;;5.00;99.90;;;;;;5097300;28;20047;-77
2022/01/19 08:04:51;;;;;;;51.28;30.35;;;5.00;99.90;;;;;;5097013;28;20503;-77
2022/01/19 08:07:16;;;;;;;54.23;30.50;;;5.00;99.90;;;;;;5095329;28;20052;-76
2022/01/19 08:09:43;;;;;;;57.07;30.27;;;5.00;99.90;;;;;;5096736;28;20040;-75
2022/01/19 08:12:10;;;;;;;54.35;31.05;;;5.00;99.90;;;;;;5095473;28;20048;-75
2022/01/19 08:14:35;;;;;;;57.83;32.30;;;5.00;99.90;;;;;;5096859;28;20052;-74
2022/01/19 08:17:01;;;;;;;48.97;30.57;;;5.00;99.90;;;;;;5095423;28;20090;-75
2022/01/19 08:19:27;;;;;;;49.10;29.53;;;5.00;99.90;;;;;;5095893;28;20392;-75
2022/01/19 08:21:53;;;;;;;49.47;29.63;;;5.00;99.90;;;;;;5078471;28;20122;-76
2022/01/19 08:24:19;;;;;;;46.53;27.70;;;5.00;99.90;;;;;;5096312;28;20046;-75
2022/01/19 08:26:44;;;;;;;52.30;30.65;;;5.00;99.90;;;;;;5096486;28;20169;-76
2022/01/19 08:29:12;;;;;;;46.73;29.33;;;5.00;99.90;;;;;;5096114;28;20566;-75
2022/01/19 08:31:38;;;;;;;53.47;31.38;;;5.00;99.90;;;;;;5096393;28;20073;-75
2022/01/19 08:34:04;;;;;;;53.77;30.37;;;5.10;99.90;;;;;;5096015;28;20040;-75
2022/01/19 08:36:30;;;;;;;55.28;32.08;;;5.10;99.90;;;;;;5096135;28;20060;-76
2022/01/19 08:38:56;;;;;;;51.90;31.03;;;5.10;99.90;;;;;;5095257;28;20123;-77
2022/01/19 08:41:22;;;;;;;46.35;29.20;;;5.10;99.90;;;;;;5095910;28;20550;-77
2022/01/19 08:43:48;;;;;;;51.13;30.77;;;5.10;99.90;;;;;;5096339;28;20044;-75
2022/01/19 08:46:15;;;;;;;54.90;32.10;;;5.20;99.90;;;;;;5095874;28;20083;-76
2022/01/19 08:48:41;;;;;;;54.30;32.15;;;5.20;99.90;;;;;;5094971;28;20044;-75
2022/01/19 08:51:06;;;;;;;50.03;31.83;;;5.20;99.90;;;;;;5095746;28;20464;-76
2022/01/19 08:53:33;;;;;;;51.60;32.00;;;5.20;99.90;;;;;;5095986;28;20083;-76
2022/01/19 08:55:58;;;;;;;57.42;32.25;;;5.20;99.90;;;;;;5096049;28;20084;-75
2022/01/19 08:58:24;;;;;;;54.97;32.40;;;5.20;99.90;;;;;;5095656;28;20079;-76
2022/01/19 09:00:50;;;;;;;60.50;32.77;;;5.20;99.90;;;;;;5093886;28;20109;-76
2022/01/19 09:03:17;;;;;;;49.93;31.77;;;5.20;99.90;;;;;;5095508;28;20048;-77
2022/01/19 09:05:44;;;;;;;59.88;35.28;;;5.20;99.90;;;;;;5095987;28;20411;-77
2022/01/19 09:08:10;;;;;;;55.45;33.05;;;5.20;99.90;;;;;;5095351;28;20120;-76
2022/01/19 09:10:37;;;;;;;54.92;32.63;;;5.20;99.90;;;;;;5095497;28;20040;-76
2022/01/19 09:13:03;;;;;;;55.63;33.00;;;5.20;99.90;;;;;;5095300;28;20500;-76
2022/01/19 09:15:29;;;;;;;62.67;34.73;;;5.20;99.90;;;;;;5095280;28;20124;-76
2022/01/19 09:17:55;;;;;;;55.90;32.97;;;5.20;99.90;;;;;;5095693;28;20054;-76
2022/01/19 09:20:20;;;;;;;54.23;33.07;;;5.30;99.90;;;;;;5095137;28;20387;-76
2022/01/19 09:22:46;;;;;;;55.07;32.63;;;5.20;99.90;;;;;;5094270;28;20040;-76
2022/01/19 09:25:13;;;;;;;60.95;32.92;;;5.30;99.90;;;;;;5094040;28;20040;-76
2022/01/19 09:27:39;;;;;;;59.88;32.90;;;5.30;99.90;;;;;;5094481;28;20082;-75
2022/01/19 09:30:14;;;;;;;52.42;33.65;;;5.30;99.90;;;;;;5077202;28;20044;-76
2022/01/19 09:32:40;;;;;;;54.00;31.83;;;5.30;99.90;;;;;;5095340;28;20087;-76
2022/01/19 09:35:09;;;;;;;59.72;33.92;;;5.30;99.90;;;;;;5094282;28;20055;-76
2022/01/19 09:37:37;;;;;;;56.95;34.38;;;5.30;99.90;;;;;;5095261;28;20143;-76
2022/01/19 09:40:07;;;;;;;62.35;35.88;;;5.30;99.90;;;;;;5095084;28;20084;-76
2022/01/19 09:42:34;;;;;;;62.70;35.25;;;5.30;99.90;;;;;;5093937;28;20113;-76
2022/01/19 09:45:00;;;;;;;64.38;36.60;;;5.30;99.90;;;;;;5095286;28;20056;-76
2022/01/19 09:47:27;;;;;;;61.83;35.28;;;5.30;99.90;;;;;;5093774;28;20036;-74
2022/01/19 09:49:53;;;;;;;65.55;35.88;;;5.40;99.90;;;;;;5094882;28;20044;-77
2022/01/19 09:52:18;;;;;;;58.93;37.33;;;5.40;99.90;;;;;;5093600;28;20048;-77
2022/01/19 09:54:44;;;;;;;60.97;36.50;;;5.30;99.90;;;;;;5094839;28;20044;-74
2022/01/19 09:57:10;;;;;;;59.57;36.53;;;5.40;99.90;;;;;;5093719;28;20047;-76
2022/01/19 09:59:35;;;;;;;57.23;35.60;;;5.40;99.90;;;;;;5094757;28;20552;-75
2022/01/19 10:02:06;;;;;;;58.97;35.53;;;5.50;99.90;;;;;;5094773;28;20051;-77
2022/01/19 10:04:34;;;;;;;60.55;36.47;;;5.50;99.90;;;;;;5094730;28;20075;-77
2022/01/19 10:07:19;;;;;;;63.85;34.95;;;5.50;99.90;;;;;;5093522;28;20503;-78
2022/01/19 10:10:12;;;;;;;61.38;37.40;;;5.40;99.90;;;;;;5094657;28;20044;-77
2022/01/19 10:18:18;;;;;;;67.63;39.58;;;5.40;99.90;;;;;;5094034;28;20496;-80
2022/01/19 10:20:46;;;;;;;62.35;35.92;;;5.40;99.90;;;;;;5093290;28;20075;-79
2022/01/19 10:23:46;;;;;;;66.35;38.42;;;5.40;99.90;;;;;;5093246;28;20044;-80
2022/01/19 10:26:14;;;;;;;65.50;39.25;;;5.40;99.90;;;;;;5093171;28;20040;-80
2022/01/19 10:29:05;;;;;;;60.60;36.67;;;5.40;99.90;;;;;;5093036;28;20573;-83
2022/01/19 10:31:34;;;;;;;57.90;35.67;;;5.40;99.90;;;;;;5092485;28;20079;-81
2022/01/19 10:34:19;;;;;;;61.90;38.25;;;5.40;99.90;;;;;;5092982;28;20052;-81
2022/01/19 10:36:46;;;;;;;;;;;5.40;99.90;;;;;;5093133;28;20617;-82
2022/01/19 10:39:13;;;;;;;67.13;36.85;;;5.40;99.90;;;;;;5093026;28;20028;-81
2022/01/19 10:42:05;;;;;;;60.17;36.20;;;5.50;99.90;;;;;;5075705;28;20051;-80
2022/01/19 10:44:38;;;;;;;61.72;37.63;;;5.50;99.90;;;;;;5093691;28;20369;-83
2022/01/19 10:47:05;;;;;;;59.83;37.55;;;5.50;99.90;;;;;;5092869;28;20048;-81
2022/01/19 10:49:53;;;;;;;57.75;37.00;;;5.60;99.90;;;;;;5092206;28;20087;-80
2022/01/19 10:52:37;;;;;;;64.90;39.00;;;5.60;99.90;;;;;;5093504;28;20077;-80
2022/01/19 10:55:10;;;;;;;62.10;36.80;;;5.60;99.90;;;;;;5075889;28;20044;-84
2022/01/19 10:57:37;;;;;;;64.45;38.55;;;5.60;99.90;;;;;;5075328;28;20044;-78
2022/01/19 11:00:29;;;;;;;63.05;36.08;;;5.60;99.90;;;;;;5093565;28;20055;-80
2022/01/19 11:03:19;;;;;;;58.35;36.67;;;5.70;99.90;;;;;;5090435;28;20098;-79
2022/01/19 11:05:46;;;;;;;59.38;35.95;;;5.70;99.90;;;;;;5091229;28;20059;-79
2022/01/19 11:08:13;;;;;;;65.15;38.88;;;5.90;99.90;;;;;;5092491;28;20055;-79
2022/01/19 11:10:39;;;;;;;54.78;37.67;;;6.00;99.90;;;;;;5091516;28;20476;-77
2022/01/19 11:13:13;;;;;;;56.25;38.35;;;;;;;;;;5093398;28;20073;-80
2022/01/19 11:15:39;;;;;;;62.45;36.88;;;;;;;;;;5092183;28;20426;-76
2022/01/19 11:18:05;;;;;;;60.30;36.95;;;;;;;;;;5093212;28;20044;-78
2022/01/19 11:20:31;;;;;;;61.45;36.88;;;;;;;;;;5092977;28;20048;-76
2022/01/19 11:23:09;;;;;;;62.08;37.67;;;;;;;;;;5092858;28;20048;-78
2022/01/19 11:25:57;;;;;;;63.75;38.47;;;;;;;;;;5074769;28;20182;-78
2022/01/19 11:28:25;;;;;;;58.53;36.60;;;;;;;;;;5092751;28;20174;-78
2022/01/19 11:30:53;;;;;;;59.22;36.70;;;;;;;;;;5092893;28;20520;-75
2022/01/19 11:33:30;;;;;;;56.72;36.80;;;;;;;;;;5093066;28;20122;-77
2022/01/19 11:36:04;;;;;;;54.97;35.83;;;;;;;;;;5092811;28;20056;-77
2022/01/19 11:38:37;;;;;;;54.50;33.97;;;;;;;;;;5091898;28;20055;-83
2022/01/19 11:41:23;;;;;;;56.47;35.38;;;;;;;;;;5092204;28;20511;-82
2022/01/19 11:43:50;;;;;;;55.95;33.72;;;;;;;;;;5092070;28;20051;-83
2022/01/19 11:46:28;;;;;;;55.00;34.83;;;;;;;;;;5091910;28;20055;-80
2022/01/19 11:48:55;;;;;;;55.38;33.35;;;;;;;;;;5092984;28;20282;-81
2022/01/19 11:51:21;;;;;;;53.50;32.67;;;;;;;;;;5092638;28;20396;-77
2022/01/19 11:54:13;;;;;;;52.15;33.88;;;;;;;;;;5091670;28;20472;-77
2022/01/19 11:56:58;;;;;;;59.45;35.00;;;;;;;;;;5090928;28;20052;-76
2022/01/19 11:59:25;;;;;;;56.10;33.00;;;;;;;;;;5091260;28;20082;-78
2022/01/19 12:01:51;;;;;;;53.77;33.47;;;;;;;;;;5091597;28;20278;-76
2022/01/19 12:04:19;;;;;;;50.87;33.20;;;;;;;;;;5092384;28;20360;-77
2022/01/19 12:06:47;;;;;;;60.20;36.50;;;;;;;;;;5092256;28;20365;-77
2022/01/19 12:09:14;;;;;;;56.35;34.03;;;;;;;;;;5092372;28;20344;-75
2022/01/19 12:11:50;;;;;;;54.17;31.73;;;;;;;;;;5092303;28;20048;-80
2022/01/19 12:14:20;;;;;;;54.77;32.90;;;;;;;;;;5094194;28;20051;-79
2022/01/19 12:17:09;;;;;;;49.00;32.13;;;;;;;;;;5083395;28;20296;-77
2022/01/19 12:19:40;;;;;;;55.37;31.17;;;;;;;;;;5066325;28;20275;-81
2022/01/19 12:22:20;;;;;;;48.05;30.23;;;;;;;;;;5067071;28;20301;-79
2022/01/19 12:24:59;;;;;;;49.03;29.97;;;;;;;;;;5064659;28;20837;-79
2022/01/19 12:27:27;;;;;;;52.53;29.20;;;;;;;;;;5066689;28;20283;-78
2022/01/19 12:29:53;;;;;;;44.55;28.40;;;;;;;;;;5066484;28;20135;-80
2022/01/19 12:32:20;;;;;;;48.00;30.10;;;;;;;;;;5066292;28;20082;-76
2022/01/19 12:34:53;;;;;;;44.77;27.97;;;;;;;;;;5066408;28;20155;-78
2022/01/19 12:37:42;;;;;;;47.27;27.83;;;;;;;;;;5070447;28;20344;-76
2022/01/19 12:40:17;;;;;;;53.08;29.52;;;;;;;;;;5067225;28;20293;-79
2022/01/19 12:42:45;;;;;;;45.60;29.87;;;;;;;;;;5070057;28;20602;-80
2022/01/19 12:45:19;;;;;;;44.30;28.73;;;;;;;;;;5071731;28;20066;-77
2022/01/19 12:48:12;;;;;;;46.07;29.07;;;;;;;;;;5070855;28;20278;-77
2022/01/19 12:50:38;;;;;;;49.13;29.10;;;;;;;;;;5050011;28;20307;-77
2022/01/19 12:53:12;;;;;;;47.83;28.53;;;;;;;;;;5070917;28;20283;-77
2022/01/19 12:55:40;;;;;;;46.27;28.00;;;;;;;;;;5070009;28;20796;-78
2022/01/19 12:58:17;;;;;;;42.03;26.80;;;;;;;;;;5070174;28;20318;-78
2022/01/19 13:00:46;;;;;;;44.17;27.80;;;;;;;;;;5070018;28;20267;-78
2022/01/19 13:03:13;;;;;;;39.03;24.00;;;;;;;;;;5070473;28;20279;-76
2022/01/19 13:05:45;;;;;;;42.63;24.27;;;;;;;;;;5070247;28;20048;-76
2022/01/19 13:08:13;;;;;;;39.83;22.80;;;;;;;;;;5069812;28;20286;-77
2022/01/19 13:10:50;;;;;;;46.37;24.43;;;;;;;;;;5069645;28;20048;-74
2022/01/19 13:13:27;;;;;;;42.20;22.80;;;;;;;;;;5070636;28;20685;-77
2022/01/19 13:15:55;;;;;;;39.73;23.17;;;;;;;;;;5076164;28;20340;-78
2022/01/19 13:18:43;;;;;;;38.67;22.33;;;;;;;;;;5069855;28;20774;-76
2022/01/19 13:21:17;;;;;;;38.00;21.30;;;;;;;;;;5070469;28;20271;-79
2022/01/19 13:23:54;;;;;;;39.13;22.40;;;;;;;;;;5074171;28;20344;-77
2022/01/19 13:26:20;;;;;;;38.47;22.10;;;;;;;;;;5076772;28;20044;-76
2022/01/19 13:28:46;;;;;;;37.78;21.08;;;;;;;;;;5051369;28;20775;-77
2022/01/19 13:31:13;;;;;;;37.00;21.13;;;;;;;;;;5069811;28;20056;-76
2022/01/19 13:33:41;;;;;;;38.63;21.13;;;;;;;;;;5074410;28;20290;-79
2022/01/19 13:36:07;;;;;;;45.00;22.27;;;;;;;;;;5076506;28;20782;-77
2022/01/19 13:38:34;;;;;;;37.60;21.13;;;;;;;;;;5069208;28;20786;-80
2022/01/19 13:41:07;;;;;;;40.97;21.83;;;;;;;;;;5068938;28;20364;-77
2022/01/19 13:43:35;;;;;;;33.97;19.77;;;;;;;;;;5056072;28;20051;-79
2022/01/19 13:46:02;;;;;;;31.93;20.03;;;;;;;;;;5076969;28;20531;-79
2022/01/19 13:48:29;;;;;;;38.33;21.80;;;;;;;;;;5069256;28;20298;-77
2022/01/19 13:50:57;;;;;;;36.20;19.73;;;;;;;;;;5067236;28;20186;-77
2022/01/19 13:53:28;;;;;;;36.57;20.07;;;;;;;;;;5071010;28;20297;-77
2022/01/19 13:55:55;;;;;;;41.10;20.53;;;;;;;;;;5076959;28;21186;-78
2022/01/19 13:58:21;;;;;;;39.88;21.45;;;;;;;;;;5069562;28;20279;-78
2022/01/19 14:00:50;;;;;;;39.53;20.77;;;;;;;;;;5068384;28;20039;-77
2022/01/19 14:03:17;;;;;;;36.13;20.88;;;;;;;;;;5070759;28;20395;-78
2022/01/19 14:05:44;;;;;;;41.37;20.30;;;;;;;;;;5078948;28;20051;-77
2022/01/19 14:08:10;;;;;;;49.40;21.95;;;;;;;;;;5068789;28;20287;-77
2022/01/19 14:10:44;;;;;;;41.63;21.98;;;;;;;;;;5067702;28;20041;-78
2022/01/19 14:13:29;;;;;;;41.30;19.80;;;;;;;;;;5069782;28;20149;-77
2022/01/19 14:16:14;;;;;;;39.35;19.35;;;;;;;;;;5079874;28;20051;-78
2022/01/19 14:18:40;;;;;;;41.30;19.65;;;;;;;;;;5068253;28;20052;-77
2022/01/19 14:21:07;;;;;;;44.03;21.17;;;;;;;;;;5067945;28;20558;-75
2022/01/19 14:23:33;;;;;;;39.25;20.13;;;;;;;;;;5072161;28;20782;-79
2022/01/19 14:26:10;;;;;;;44.67;20.58;;;;;;;;;;5080579;28;20087;-77
2022/01/19 14:28:38;;;;;;;38.08;18.30;;;;;;;;;;5068831;28;20353;-78
2022/01/19 14:31:05;;;;;;;35.83;16.55;;;;;;;;;;5076257;28;20577;-77